sensor_id;sensor_type;location;lat;lon;timestamp;P1;durP1;ratioP1;P2;durP2;ratioP2
45812;SDS011;31519;45.408;10.962;2024-02-26T00:02:23;10.10;;;4.45;;
45812;SDS011;31519;45.408;10.962;2024-02-26T00:04:52;12.15;;;4.40;;
45812;SDS011;31519;45.408;10.962;2024-02-26T00:07:20;7.63;;;4.85;;
45812;SDS011;31519;45.408;10.962;2024-02-26T00:09:48;14.88;;;5.25;;
45812;SDS011;31519;45.408;10.962;2024-02-26T00:12:16;11.68;;;4.32;;
45812;SDS011;31519;45.408;10.962;2024-02-26T00:14:45;9.32;;;5.18;;
45812;SDS011;31519;45.408;10.962;2024-02-26T00:17:14;8.90;;;4.80;;
45812;SDS011;31519;45.408;10.962;2024-02-26T00:19:43;8.95;;;4.78;;
45812;SDS011;31519;45.408;10.962;2024-02-26T00:22:11;6.68;;;3.92;;
45812;SDS011;31519;45.408;10.962;2024-02-26T00:24:40;8.00;;;4.70;;
45812;SDS011;31519;45.408;10.962;2024-02-26T00:27:09;8.70;;;4.82;;
45812;SDS011;31519;45.408;10.962;2024-02-26T00:29:37;7.93;;;3.88;;
45812;SDS011;31519;45.408;10.962;2024-02-26T00:32:05;13.27;;;4.68;;
45812;SDS011;31519;45.408;10.962;2024-02-26T00:34:34;9.82;;;4.35;;
45812;SDS011;31519;45.408;10.962;2024-02-26T00:37:03;11.02;;;4.03;;
45812;SDS011;31519;45.408;10.962;2024-02-26T00:39:31;10.93;;;5.03;;
45812;SDS011;31519;45.408;10.962;2024-02-26T00:41:59;7.28;;;4.35;;
45812;SDS011;31519;45.408;10.962;2024-02-26T00:44:28;10.73;;;5.07;;
45812;SDS011;31519;45.408;10.962;2024-02-26T00:46:56;11.82;;;4.57;;
45812;SDS011;31519;45.408;10.962;2024-02-26T00:49:24;11.60;;;4.63;;
45812;SDS011;31519;45.408;10.962;2024-02-26T00:51:53;11.55;;;5.38;;
45812;SDS011;31519;45.408;10.962;2024-02-26T00:54:21;9.25;;;4.43;;
45812;SDS011;31519;45.408;10.962;2024-02-26T00:56:49;11.20;;;4.53;;
45812;SDS011;31519;45.408;10.962;2024-02-26T00:59:17;10.68;;;4.78;;
45812;SDS011;31519;45.408;10.962;2024-02-26T01:01:45;5.93;;;3.95;;
45812;SDS011;31519;45.408;10.962;2024-02-26T01:04:14;8.60;;;3.95;;
45812;SDS011;31519;45.408;10.962;2024-02-26T01:06:42;8.63;;;4.22;;
45812;SDS011;31519;45.408;10.962;2024-02-26T01:09:12;7.60;;;3.08;;
45812;SDS011;31519;45.408;10.962;2024-02-26T01:11:40;12.35;;;4.50;;
45812;SDS011;31519;45.408;10.962;2024-02-26T01:14:08;8.80;;;4.50;;
45812;SDS011;31519;45.408;10.962;2024-02-26T01:16:36;8.60;;;4.25;;
45812;SDS011;31519;45.408;10.962;2024-02-26T01:19:05;8.27;;;4.00;;
45812;SDS011;31519;45.408;10.962;2024-02-26T01:21:33;10.65;;;4.40;;
45812;SDS011;31519;45.408;10.962;2024-02-26T01:24:02;13.27;;;4.93;;
45812;SDS011;31519;45.408;10.962;2024-02-26T01:26:30;8.68;;;4.57;;
45812;SDS011;31519;45.408;10.962;2024-02-26T01:29:23;9.80;;;5.03;;
45812;SDS011;31519;45.408;10.962;2024-02-26T01:31:51;11.02;;;4.93;;
45812;SDS011;31519;45.408;10.962;2024-02-26T01:34:20;9.15;;;5.70;;
45812;SDS011;31519;45.408;10.962;2024-02-26T01:36:48;13.90;;;5.47;;
45812;SDS011;31519;45.408;10.962;2024-02-26T01:39:17;9.32;;;5.10;;
45812;SDS011;31519;45.408;10.962;2024-02-26T01:41:45;9.07;;;5.43;;
45812;SDS011;31519;45.408;10.962;2024-02-26T01:44:13;10.60;;;5.35;;
45812;SDS011;31519;45.408;10.962;2024-02-26T01:46:41;9.75;;;5.03;;
45812;SDS011;31519;45.408;10.962;2024-02-26T01:49:11;17.65;;;4.80;;
45812;SDS011;31519;45.408;10.962;2024-02-26T01:51:41;14.88;;;5.47;;
45812;SDS011;31519;45.408;10.962;2024-02-26T01:54:11;15.38;;;5.43;;
45812;SDS011;31519;45.408;10.962;2024-02-26T01:56:40;12.57;;;4.90;;
45812;SDS011;31519;45.408;10.962;2024-02-26T01:59:09;9.55;;;5.22;;
45812;SDS011;31519;45.408;10.962;2024-02-26T02:01:38;10.93;;;5.57;;
45812;SDS011;31519;45.408;10.962;2024-02-26T02:04:10;10.77;;;5.47;;
45812;SDS011;31519;45.408;10.962;2024-02-26T02:06:39;9.07;;;5.30;;
45812;SDS011;31519;45.408;10.962;2024-02-26T02:09:09;10.52;;;5.25;;
45812;SDS011;31519;45.408;10.962;2024-02-26T02:11:37;6.75;;;4.70;;
45812;SDS011;31519;45.408;10.962;2024-02-26T02:14:06;9.32;;;5.13;;
45812;SDS011;31519;45.408;10.962;2024-02-26T02:16:34;10.40;;;5.25;;
45812;SDS011;31519;45.408;10.962;2024-02-26T02:19:03;8.30;;;5.68;;
45812;SDS011;31519;45.408;10.962;2024-02-26T02:21:31;13.30;;;4.90;;
45812;SDS011;31519;45.408;10.962;2024-02-26T02:23:59;12.07;;;5.65;;
45812;SDS011;31519;45.408;10.962;2024-02-26T02:26:27;9.40;;;5.28;;
45812;SDS011;31519;45.408;10.962;2024-02-26T02:28:56;10.50;;;5.18;;
45812;SDS011;31519;45.408;10.962;2024-02-26T02:31:24;12.23;;;6.18;;
45812;SDS011;31519;45.408;10.962;2024-02-26T02:33:53;8.00;;;5.30;;
45812;SDS011;31519;45.408;10.962;2024-02-26T02:36:21;13.93;;;5.20;;
45812;SDS011;31519;45.408;10.962;2024-02-26T02:38:50;6.82;;;4.60;;
45812;SDS011;31519;45.408;10.962;2024-02-26T02:41:18;8.23;;;4.70;;
45812;SDS011;31519;45.408;10.962;2024-02-26T02:43:47;11.85;;;5.22;;
45812;SDS011;31519;45.408;10.962;2024-02-26T02:46:15;20.75;;;4.85;;
45812;SDS011;31519;45.408;10.962;2024-02-26T02:48:43;10.20;;;4.90;;
45812;SDS011;31519;45.408;10.962;2024-02-26T02:51:12;7.82;;;4.63;;
45812;SDS011;31519;45.408;10.962;2024-02-26T02:53:40;10.65;;;5.13;;
45812;SDS011;31519;45.408;10.962;2024-02-26T02:56:08;11.95;;;5.38;;
45812;SDS011;31519;45.408;10.962;2024-02-26T02:58:37;11.63;;;5.35;;
45812;SDS011;31519;45.408;10.962;2024-02-26T03:01:05;10.48;;;4.95;;
45812;SDS011;31519;45.408;10.962;2024-02-26T03:03:33;9.10;;;5.43;;
45812;SDS011;31519;45.408;10.962;2024-02-26T03:06:02;9.32;;;5.97;;
45812;SDS011;31519;45.408;10.962;2024-02-26T03:08:31;9.90;;;4.88;;
45812;SDS011;31519;45.408;10.962;2024-02-26T03:10:59;8.73;;;5.65;;
45812;SDS011;31519;45.408;10.962;2024-02-26T03:13:28;11.38;;;5.82;;
45812;SDS011;31519;45.408;10.962;2024-02-26T03:15:56;11.93;;;5.45;;
45812;SDS011;31519;45.408;10.962;2024-02-26T03:18:25;10.40;;;5.20;;
45812;SDS011;31519;45.408;10.962;2024-02-26T03:20:53;12.43;;;5.20;;
45812;SDS011;31519;45.408;10.962;2024-02-26T03:23:22;10.85;;;4.82;;
45812;SDS011;31519;45.408;10.962;2024-02-26T03:25:50;15.23;;;5.55;;
45812;SDS011;31519;45.408;10.962;2024-02-26T03:28:19;12.18;;;5.63;;
45812;SDS011;31519;45.408;10.962;2024-02-26T03:30:47;10.77;;;5.45;;
45812;SDS011;31519;45.408;10.962;2024-02-26T03:33:15;8.98;;;4.82;;
45812;SDS011;31519;45.408;10.962;2024-02-26T03:35:43;11.50;;;5.25;;
45812;SDS011;31519;45.408;10.962;2024-02-26T03:38:12;10.23;;;4.07;;
45812;SDS011;31519;45.408;10.962;2024-02-26T03:40:40;9.25;;;4.90;;
45812;SDS011;31519;45.408;10.962;2024-02-26T03:43:09;9.45;;;4.93;;
45812;SDS011;31519;45.408;10.962;2024-02-26T03:45:37;13.00;;;4.47;;
45812;SDS011;31519;45.408;10.962;2024-02-26T03:48:05;9.02;;;4.75;;
45812;SDS011;31519;45.408;10.962;2024-02-26T03:50:34;6.65;;;4.70;;
45812;SDS011;31519;45.408;10.962;2024-02-26T03:53:02;6.88;;;4.10;;
45812;SDS011;31519;45.408;10.962;2024-02-26T03:55:30;7.43;;;4.65;;
45812;SDS011;31519;45.408;10.962;2024-02-26T03:57:59;15.57;;;4.80;;
45812;SDS011;31519;45.408;10.962;2024-02-26T04:00:27;9.05;;;4.95;;
45812;SDS011;31519;45.408;10.962;2024-02-26T04:02:58;8.25;;;4.95;;
45812;SDS011;31519;45.408;10.962;2024-02-26T04:05:26;9.88;;;4.70;;
45812;SDS011;31519;45.408;10.962;2024-02-26T04:07:54;9.10;;;4.82;;
45812;SDS011;31519;45.408;10.962;2024-02-26T04:10:22;11.10;;;5.25;;
45812;SDS011;31519;45.408;10.962;2024-02-26T04:12:51;7.30;;;4.85;;
45812;SDS011;31519;45.408;10.962;2024-02-26T04:15:19;13.27;;;5.40;;
45812;SDS011;31519;45.408;10.962;2024-02-26T04:17:50;9.32;;;4.35;;
45812;SDS011;31519;45.408;10.962;2024-02-26T04:20:18;9.68;;;4.22;;
45812;SDS011;31519;45.408;10.962;2024-02-26T04:22:47;9.75;;;4.55;;
45812;SDS011;31519;45.408;10.962;2024-02-26T04:25:15;10.05;;;4.63;;
45812;SDS011;31519;45.408;10.962;2024-02-26T04:27:43;9.80;;;4.65;;
45812;SDS011;31519;45.408;10.962;2024-02-26T04:30:12;8.73;;;5.22;;
45812;SDS011;31519;45.408;10.962;2024-02-26T04:32:41;8.25;;;5.05;;
45812;SDS011;31519;45.408;10.962;2024-02-26T04:35:09;7.45;;;4.60;;
45812;SDS011;31519;45.408;10.962;2024-02-26T04:37:38;7.50;;;5.05;;
45812;SDS011;31519;45.408;10.962;2024-02-26T04:40:06;6.97;;;4.43;;
45812;SDS011;31519;45.408;10.962;2024-02-26T04:42:36;8.90;;;5.25;;
45812;SDS011;31519;45.408;10.962;2024-02-26T04:45:04;8.57;;;3.90;;
45812;SDS011;31519;45.408;10.962;2024-02-26T04:47:35;8.05;;;5.10;;
45812;SDS011;31519;45.408;10.962;2024-02-26T04:50:05;9.07;;;4.68;;
45812;SDS011;31519;45.408;10.962;2024-02-26T04:52:34;10.50;;;4.72;;
45812;SDS011;31519;45.408;10.962;2024-02-26T04:55:02;11.60;;;4.78;;
45812;SDS011;31519;45.408;10.962;2024-02-26T04:57:31;8.85;;;4.30;;
45812;SDS011;31519;45.408;10.962;2024-02-26T04:59:59;7.78;;;4.55;;
45812;SDS011;31519;45.408;10.962;2024-02-26T05:02:28;8.95;;;5.32;;
45812;SDS011;31519;45.408;10.962;2024-02-26T05:05:00;8.02;;;4.95;;
45812;SDS011;31519;45.408;10.962;2024-02-26T05:07:28;9.93;;;4.40;;
45812;SDS011;31519;45.408;10.962;2024-02-26T05:09:56;8.00;;;4.55;;
45812;SDS011;31519;45.408;10.962;2024-02-26T05:12:25;7.82;;;4.72;;
45812;SDS011;31519;45.408;10.962;2024-02-26T05:14:53;9.82;;;5.32;;
45812;SDS011;31519;45.408;10.962;2024-02-26T05:17:22;12.32;;;5.93;;
45812;SDS011;31519;45.408;10.962;2024-02-26T05:19:52;9.65;;;5.18;;
45812;SDS011;31519;45.408;10.962;2024-02-26T05:22:21;8.80;;;5.22;;
45812;SDS011;31519;45.408;10.962;2024-02-26T05:24:49;10.63;;;5.20;;
45812;SDS011;31519;45.408;10.962;2024-02-26T05:27:19;10.52;;;4.57;;
45812;SDS011;31519;45.408;10.962;2024-02-26T05:29:47;29.48;;;5.47;;
45812;SDS011;31519;45.408;10.962;2024-02-26T05:32:15;12.75;;;5.00;;
45812;SDS011;31519;45.408;10.962;2024-02-26T05:34:43;9.55;;;5.05;;
45812;SDS011;31519;45.408;10.962;2024-02-26T05:37:11;6.03;;;4.20;;
45812;SDS011;31519;45.408;10.962;2024-02-26T05:39:39;12.82;;;5.25;;
45812;SDS011;31519;45.408;10.962;2024-02-26T05:42:08;8.40;;;4.75;;
45812;SDS011;31519;45.408;10.962;2024-02-26T05:44:36;11.48;;;4.78;;
45812;SDS011;31519;45.408;10.962;2024-02-26T05:47:05;17.98;;;5.18;;
45812;SDS011;31519;45.408;10.962;2024-02-26T05:49:33;6.90;;;4.95;;
45812;SDS011;31519;45.408;10.962;2024-02-26T05:52:02;11.13;;;4.80;;
45812;SDS011;31519;45.408;10.962;2024-02-26T05:54:30;18.60;;;4.30;;
45812;SDS011;31519;45.408;10.962;2024-02-26T05:56:58;16.88;;;5.25;;
45812;SDS011;31519;45.408;10.962;2024-02-26T05:59:27;8.15;;;4.70;;
45812;SDS011;31519;45.408;10.962;2024-02-26T06:01:55;15.93;;;4.90;;
45812;SDS011;31519;45.408;10.962;2024-02-26T06:04:23;13.70;;;4.93;;
45812;SDS011;31519;45.408;10.962;2024-02-26T06:06:51;7.93;;;5.07;;
45812;SDS011;31519;45.408;10.962;2024-02-26T06:09:20;10.63;;;5.00;;
45812;SDS011;31519;45.408;10.962;2024-02-26T06:11:48;12.63;;;4.82;;
45812;SDS011;31519;45.408;10.962;2024-02-26T06:14:16;8.20;;;4.85;;
45812;SDS011;31519;45.408;10.962;2024-02-26T06:16:46;13.35;;;5.53;;
45812;SDS011;31519;45.408;10.962;2024-02-26T06:19:14;12.85;;;6.60;;
45812;SDS011;31519;45.408;10.962;2024-02-26T06:21:43;16.10;;;7.40;;
45812;SDS011;31519;45.408;10.962;2024-02-26T06:24:11;30.92;;;8.60;;
45812;SDS011;31519;45.408;10.962;2024-02-26T06:26:39;18.10;;;7.50;;
45812;SDS011;31519;45.408;10.962;2024-02-26T06:29:08;15.73;;;8.43;;
45812;SDS011;31519;45.408;10.962;2024-02-26T06:31:36;15.00;;;7.85;;
45812;SDS011;31519;45.408;10.962;2024-02-26T06:34:04;16.42;;;8.18;;
45812;SDS011;31519;45.408;10.962;2024-02-26T06:36:33;18.48;;;8.38;;
45812;SDS011;31519;45.408;10.962;2024-02-26T06:39:02;21.77;;;8.48;;
45812;SDS011;31519;45.408;10.962;2024-02-26T06:41:31;22.52;;;8.07;;
45812;SDS011;31519;45.408;10.962;2024-02-26T06:43:59;22.00;;;7.93;;
45812;SDS011;31519;45.408;10.962;2024-02-26T06:46:27;16.27;;;7.78;;
45812;SDS011;31519;45.408;10.962;2024-02-26T06:48:58;15.65;;;7.07;;
45812;SDS011;31519;45.408;10.962;2024-02-26T06:51:27;15.32;;;8.82;;
45812;SDS011;31519;45.408;10.962;2024-02-26T06:53:55;20.42;;;8.30;;
45812;SDS011;31519;45.408;10.962;2024-02-26T06:56:24;22.08;;;7.70;;
45812;SDS011;31519;45.408;10.962;2024-02-26T06:58:52;18.50;;;7.72;;
45812;SDS011;31519;45.408;10.962;2024-02-26T07:01:20;21.20;;;8.25;;
45812;SDS011;31519;45.408;10.962;2024-02-26T07:03:48;18.45;;;7.82;;
45812;SDS011;31519;45.408;10.962;2024-02-26T07:06:17;19.65;;;8.10;;
45812;SDS011;31519;45.408;10.962;2024-02-26T07:08:46;18.83;;;8.20;;
45812;SDS011;31519;45.408;10.962;2024-02-26T07:11:14;24.00;;;8.65;;
45812;SDS011;31519;45.408;10.962;2024-02-26T07:13:42;18.05;;;8.00;;
45812;SDS011;31519;45.408;10.962;2024-02-26T07:16:11;16.90;;;7.30;;
45812;SDS011;31519;45.408;10.962;2024-02-26T07:18:39;22.60;;;8.98;;
45812;SDS011;31519;45.408;10.962;2024-02-26T07:21:08;18.60;;;7.88;;
45812;SDS011;31519;45.408;10.962;2024-02-26T07:23:36;14.18;;;7.57;;
45812;SDS011;31519;45.408;10.962;2024-02-26T07:26:05;20.08;;;7.10;;
45812;SDS011;31519;45.408;10.962;2024-02-26T07:28:35;15.85;;;7.15;;
45812;SDS011;31519;45.408;10.962;2024-02-26T07:31:04;20.38;;;7.20;;
45812;SDS011;31519;45.408;10.962;2024-02-26T07:33:32;13.27;;;6.47;;
45812;SDS011;31519;45.408;10.962;2024-02-26T07:36:01;18.25;;;7.78;;
45812;SDS011;31519;45.408;10.962;2024-02-26T07:38:29;16.35;;;8.05;;
45812;SDS011;31519;45.408;10.962;2024-02-26T07:41:09;19.92;;;7.35;;
45812;SDS011;31519;45.408;10.962;2024-02-26T07:43:37;24.20;;;7.47;;
45812;SDS011;31519;45.408;10.962;2024-02-26T07:46:11;20.15;;;8.30;;
45812;SDS011;31519;45.408;10.962;2024-02-26T07:48:40;15.40;;;7.35;;
45812;SDS011;31519;45.408;10.962;2024-02-26T07:51:12;23.70;;;7.80;;
45812;SDS011;31519;45.408;10.962;2024-02-26T07:53:42;18.42;;;8.82;;
45812;SDS011;31519;45.408;10.962;2024-02-26T07:56:10;18.50;;;7.20;;
45812;SDS011;31519;45.408;10.962;2024-02-26T07:58:38;19.40;;;7.25;;
45812;SDS011;31519;45.408;10.962;2024-02-26T08:01:07;18.65;;;7.75;;
45812;SDS011;31519;45.408;10.962;2024-02-26T08:03:36;18.83;;;7.50;;
45812;SDS011;31519;45.408;10.962;2024-02-26T08:06:07;28.90;;;7.93;;
45812;SDS011;31519;45.408;10.962;2024-02-26T08:08:36;13.73;;;7.80;;
45812;SDS011;31519;45.408;10.962;2024-02-26T08:11:04;15.35;;;7.47;;
45812;SDS011;31519;45.408;10.962;2024-02-26T08:13:32;18.10;;;8.02;;
45812;SDS011;31519;45.408;10.962;2024-02-26T08:16:01;15.93;;;7.38;;
45812;SDS011;31519;45.408;10.962;2024-02-26T08:18:29;23.83;;;6.95;;
45812;SDS011;31519;45.408;10.962;2024-02-26T08:20:58;16.42;;;5.93;;
45812;SDS011;31519;45.408;10.962;2024-02-26T08:23:26;13.07;;;6.22;;
45812;SDS011;31519;45.408;10.962;2024-02-26T08:25:54;11.93;;;5.78;;
45812;SDS011;31519;45.408;10.962;2024-02-26T08:28:22;11.23;;;5.32;;
45812;SDS011;31519;45.408;10.962;2024-02-26T08:30:52;12.73;;;4.88;;
45812;SDS011;31519;45.408;10.962;2024-02-26T08:33:20;22.98;;;5.03;;
45812;SDS011;31519;45.408;10.962;2024-02-26T08:35:49;12.68;;;5.00;;
45812;SDS011;31519;45.408;10.962;2024-02-26T08:38:17;11.77;;;5.30;;
45812;SDS011;31519;45.408;10.962;2024-02-26T08:40:45;14.90;;;5.57;;
45812;SDS011;31519;45.408;10.962;2024-02-26T08:43:14;9.05;;;4.60;;
45812;SDS011;31519;45.408;10.962;2024-02-26T08:45:42;9.32;;;4.47;;
45812;SDS011;31519;45.408;10.962;2024-02-26T08:48:11;12.55;;;4.40;;
45812;SDS011;31519;45.408;10.962;2024-02-26T08:50:39;7.85;;;4.50;;
45812;SDS011;31519;45.408;10.962;2024-02-26T08:53:08;12.52;;;4.30;;
45812;SDS011;31519;45.408;10.962;2024-02-26T08:55:36;8.95;;;3.75;;
45812;SDS011;31519;45.408;10.962;2024-02-26T08:58:04;6.90;;;3.40;;
45812;SDS011;31519;45.408;10.962;2024-02-26T09:00:32;5.95;;;2.95;;
45812;SDS011;31519;45.408;10.962;2024-02-26T09:03:01;6.93;;;3.30;;
45812;SDS011;31519;45.408;10.962;2024-02-26T09:05:33;14.45;;;4.13;;
45812;SDS011;31519;45.408;10.962;2024-02-26T09:08:01;8.98;;;3.35;;
45812;SDS011;31519;45.408;10.962;2024-02-26T09:10:30;8.05;;;2.72;;
45812;SDS011;31519;45.408;10.962;2024-02-26T09:12:59;14.73;;;3.28;;
45812;SDS011;31519;45.408;10.962;2024-02-26T09:15:28;11.25;;;4.07;;
45812;SDS011;31519;45.408;10.962;2024-02-26T09:17:56;10.25;;;3.38;;
45812;SDS011;31519;45.408;10.962;2024-02-26T09:20:25;7.45;;;3.08;;
45812;SDS011;31519;45.408;10.962;2024-02-26T09:22:53;15.20;;;5.38;;
45812;SDS011;31519;45.408;10.962;2024-02-26T09:25:22;15.13;;;2.80;;
45812;SDS011;31519;45.408;10.962;2024-02-26T09:27:50;10.45;;;3.20;;
45812;SDS011;31519;45.408;10.962;2024-02-26T09:30:18;10.63;;;3.00;;
45812;SDS011;31519;45.408;10.962;2024-02-26T09:32:47;11.63;;;4.28;;
45812;SDS011;31519;45.408;10.962;2024-02-26T09:35:16;8.30;;;3.20;;
45812;SDS011;31519;45.408;10.962;2024-02-26T09:37:44;8.90;;;3.53;;
45812;SDS011;31519;45.408;10.962;2024-02-26T09:40:13;8.05;;;3.15;;
45812;SDS011;31519;45.408;10.962;2024-02-26T09:42:42;11.50;;;2.92;;
45812;SDS011;31519;45.408;10.962;2024-02-26T09:45:17;3.95;;;2.63;;
45812;SDS011;31519;45.408;10.962;2024-02-26T09:47:47;9.00;;;3.63;;
45812;SDS011;31519;45.408;10.962;2024-02-26T09:50:18;7.20;;;3.50;;
45812;SDS011;31519;45.408;10.962;2024-02-26T09:52:51;8.65;;;3.17;;
45812;SDS011;31519;45.408;10.962;2024-02-26T09:55:21;10.23;;;3.65;;
45812;SDS011;31519;45.408;10.962;2024-02-26T09:57:50;6.35;;;3.75;;
45812;SDS011;31519;45.408;10.962;2024-02-26T10:00:21;21.27;;;4.60;;
45812;SDS011;31519;45.408;10.962;2024-02-26T10:02:50;12.45;;;4.35;;
45812;SDS011;31519;45.408;10.962;2024-02-26T10:05:19;5.90;;;3.78;;
45812;SDS011;31519;45.408;10.962;2024-02-26T10:07:48;7.90;;;3.95;;
45812;SDS011;31519;45.408;10.962;2024-02-26T10:10:18;8.80;;;4.00;;
45812;SDS011;31519;45.408;10.962;2024-02-26T10:12:46;10.40;;;3.88;;
45812;SDS011;31519;45.408;10.962;2024-02-26T10:15:15;14.07;;;5.32;;
45812;SDS011;31519;45.408;10.962;2024-02-26T10:17:43;10.90;;;5.30;;
45812;SDS011;31519;45.408;10.962;2024-02-26T10:20:16;10.98;;;5.03;;
45812;SDS011;31519;45.408;10.962;2024-02-26T10:22:46;13.82;;;5.20;;
45812;SDS011;31519;45.408;10.962;2024-02-26T10:25:15;19.33;;;5.38;;
45812;SDS011;31519;45.408;10.962;2024-02-26T10:27:43;10.18;;;4.47;;
45812;SDS011;31519;45.408;10.962;2024-02-26T10:32:49;14.38;;;4.65;;
45812;SDS011;31519;45.408;10.962;2024-02-26T10:35:18;12.00;;;4.88;;
45812;SDS011;31519;45.408;10.962;2024-02-26T10:37:50;25.25;;;6.25;;
45812;SDS011;31519;45.408;10.962;2024-02-26T10:40:19;9.20;;;4.38;;
45812;SDS011;31519;45.408;10.962;2024-02-26T10:42:47;10.77;;;4.55;;
45812;SDS011;31519;45.408;10.962;2024-02-26T10:45:15;11.10;;;4.18;;
45812;SDS011;31519;45.408;10.962;2024-02-26T10:47:43;15.18;;;4.57;;
45812;SDS011;31519;45.408;10.962;2024-02-26T10:50:14;7.05;;;4.32;;
45812;SDS011;31519;45.408;10.962;2024-02-26T10:52:45;9.05;;;4.03;;
45812;SDS011;31519;45.408;10.962;2024-02-26T10:55:17;13.15;;;4.75;;
45812;SDS011;31519;45.408;10.962;2024-02-26T10:57:50;7.05;;;4.80;;
45812;SDS011;31519;45.408;10.962;2024-02-26T11:00:20;9.95;;;4.65;;
45812;SDS011;31519;45.408;10.962;2024-02-26T11:02:48;9.43;;;4.40;;
45812;SDS011;31519;45.408;10.962;2024-02-26T11:05:19;8.63;;;3.67;;
45812;SDS011;31519;45.408;10.962;2024-02-26T11:07:48;11.45;;;4.20;;
45812;SDS011;31519;45.408;10.962;2024-02-26T11:10:18;7.40;;;3.65;;
45812;SDS011;31519;45.408;10.962;2024-02-26T11:12:46;9.70;;;4.43;;
45812;SDS011;31519;45.408;10.962;2024-02-26T11:15:17;10.15;;;4.10;;
45812;SDS011;31519;45.408;10.962;2024-02-26T11:17:46;7.75;;;3.60;;
45812;SDS011;31519;45.408;10.962;2024-02-26T11:20:16;6.40;;;3.20;;
45812;SDS011;31519;45.408;10.962;2024-02-26T11:22:47;8.68;;;3.65;;
45812;SDS011;31519;45.408;10.962;2024-02-26T11:25:15;9.45;;;3.63;;
45812;SDS011;31519;45.408;10.962;2024-02-26T11:27:47;12.40;;;3.58;;
45812;SDS011;31519;45.408;10.962;2024-02-26T11:30:25;8.25;;;3.72;;
45812;SDS011;31519;45.408;10.962;2024-02-26T11:32:57;11.40;;;3.53;;
45812;SDS011;31519;45.408;10.962;2024-02-26T11:35:26;7.28;;;3.25;;
45812;SDS011;31519;45.408;10.962;2024-02-26T11:37:56;10.75;;;3.63;;
45812;SDS011;31519;45.408;10.962;2024-02-26T11:40:26;6.18;;;3.33;;
45812;SDS011;31519;45.408;10.962;2024-02-26T11:42:55;14.60;;;4.00;;
45812;SDS011;31519;45.408;10.962;2024-02-26T11:48:13;8.20;;;2.92;;
45812;SDS011;31519;45.408;10.962;2024-02-26T11:50:48;7.95;;;3.05;;
45812;SDS011;31519;45.408;10.962;2024-02-26T12:01:40;9.18;;;3.22;;
45812;SDS011;31519;45.408;10.962;2024-02-26T12:04:19;5.82;;;2.67;;
45812;SDS011;31519;45.408;10.962;2024-02-26T12:06:51;9.05;;;2.47;;
45812;SDS011;31519;45.408;10.962;2024-02-26T12:09:37;9.35;;;2.67;;
45812;SDS011;31519;45.408;10.962;2024-02-26T12:12:10;5.50;;;2.60;;
45812;SDS011;31519;45.408;10.962;2024-02-26T12:14:51;9.15;;;3.05;;
45812;SDS011;31519;45.408;10.962;2024-02-26T12:17:22;9.43;;;2.85;;
45812;SDS011;31519;45.408;10.962;2024-02-26T12:19:51;3.88;;;2.78;;
45812;SDS011;31519;45.408;10.962;2024-02-26T12:22:22;6.22;;;2.38;;
45812;SDS011;31519;45.408;10.962;2024-02-26T12:24:58;6.15;;;2.20;;
45812;SDS011;31519;45.408;10.962;2024-02-26T12:27:29;7.63;;;2.38;;
45812;SDS011;31519;45.408;10.962;2024-02-26T12:29:57;5.88;;;2.42;;
45812;SDS011;31519;45.408;10.962;2024-02-26T12:32:25;12.05;;;2.53;;
45812;SDS011;31519;45.408;10.962;2024-02-26T12:34:54;7.25;;;2.65;;
45812;SDS011;31519;45.408;10.962;2024-02-26T12:37:23;9.13;;;2.88;;
45812;SDS011;31519;45.408;10.962;2024-02-26T12:39:51;3.80;;;2.30;;
45812;SDS011;31519;45.408;10.962;2024-02-26T12:42:19;6.18;;;2.40;;
45812;SDS011;31519;45.408;10.962;2024-02-26T12:44:49;5.63;;;3.00;;
45812;SDS011;31519;45.408;10.962;2024-02-26T12:47:18;6.38;;;2.60;;
45812;SDS011;31519;45.408;10.962;2024-02-26T12:49:47;4.70;;;2.58;;
45812;SDS011;31519;45.408;10.962;2024-02-26T12:52:17;10.00;;;3.05;;
45812;SDS011;31519;45.408;10.962;2024-02-26T12:54:45;8.38;;;2.72;;
45812;SDS011;31519;45.408;10.962;2024-02-26T12:57:14;9.93;;;3.40;;
45812;SDS011;31519;45.408;10.962;2024-02-26T12:59:42;10.45;;;3.00;;
45812;SDS011;31519;45.408;10.962;2024-02-26T13:02:11;7.15;;;3.30;;
45812;SDS011;31519;45.408;10.962;2024-02-26T13:04:40;8.43;;;3.20;;
45812;SDS011;31519;45.408;10.962;2024-02-26T13:07:09;7.78;;;2.85;;
45812;SDS011;31519;45.408;10.962;2024-02-26T13:09:37;4.05;;;2.90;;
45812;SDS011;31519;45.408;10.962;2024-02-26T13:12:06;6.60;;;2.80;;
45812;SDS011;31519;45.408;10.962;2024-02-26T13:14:35;10.52;;;2.78;;
45812;SDS011;31519;45.408;10.962;2024-02-26T13:17:03;5.28;;;3.03;;
45812;SDS011;31519;45.408;10.962;2024-02-26T13:19:32;12.82;;;2.88;;
45812;SDS011;31519;45.408;10.962;2024-02-26T13:22:05;6.93;;;2.75;;
45812;SDS011;31519;45.408;10.962;2024-02-26T13:24:36;9.93;;;4.22;;
45812;SDS011;31519;45.408;10.962;2024-02-26T13:27:05;7.85;;;3.10;;
45812;SDS011;31519;45.408;10.962;2024-02-26T13:29:34;7.25;;;2.97;;
45812;SDS011;31519;45.408;10.962;2024-02-26T13:32:03;13.00;;;4.13;;
45812;SDS011;31519;45.408;10.962;2024-02-26T13:34:32;9.90;;;3.40;;
45812;SDS011;31519;45.408;10.962;2024-02-26T13:37:02;18.40;;;4.22;;
45812;SDS011;31519;45.408;10.962;2024-02-26T13:39:31;7.78;;;3.45;;
45812;SDS011;31519;45.408;10.962;2024-02-26T13:41:59;6.13;;;2.25;;
45812;SDS011;31519;45.408;10.962;2024-02-26T13:44:28;12.25;;;2.70;;
45812;SDS011;31519;45.408;10.962;2024-02-26T13:46:56;7.47;;;2.67;;
45812;SDS011;31519;45.408;10.962;2024-02-26T13:49:24;5.53;;;2.05;;
45812;SDS011;31519;45.408;10.962;2024-02-26T13:51:52;5.43;;;1.83;;
45812;SDS011;31519;45.408;10.962;2024-02-26T13:54:21;6.97;;;1.90;;
45812;SDS011;31519;45.408;10.962;2024-02-26T13:56:49;8.00;;;2.13;;
45812;SDS011;31519;45.408;10.962;2024-02-26T13:59:18;6.72;;;2.15;;
45812;SDS011;31519;45.408;10.962;2024-02-26T14:01:46;14.95;;;4.57;;
45812;SDS011;31519;45.408;10.962;2024-02-26T14:04:14;5.70;;;2.50;;
45812;SDS011;31519;45.408;10.962;2024-02-26T14:06:44;4.88;;;2.17;;
45812;SDS011;31519;45.408;10.962;2024-02-26T14:09:13;6.25;;;2.58;;
45812;SDS011;31519;45.408;10.962;2024-02-26T14:14:15;5.78;;;2.53;;
45812;SDS011;31519;45.408;10.962;2024-02-26T14:16:43;5.07;;;1.90;;
45812;SDS011;31519;45.408;10.962;2024-02-26T14:19:12;6.32;;;2.42;;
45812;SDS011;31519;45.408;10.962;2024-02-26T14:21:43;7.10;;;2.35;;
45812;SDS011;31519;45.408;10.962;2024-02-26T14:24:11;3.83;;;2.17;;
45812;SDS011;31519;45.408;10.962;2024-02-26T14:26:40;4.68;;;2.17;;
45812;SDS011;31519;45.408;10.962;2024-02-26T14:29:08;2.67;;;1.98;;
45812;SDS011;31519;45.408;10.962;2024-02-26T14:31:37;4.05;;;2.10;;
45812;SDS011;31519;45.408;10.962;2024-02-26T14:34:05;4.43;;;2.28;;
45812;SDS011;31519;45.408;10.962;2024-02-26T14:36:35;4.13;;;1.63;;
45812;SDS011;31519;45.408;10.962;2024-02-26T14:39:03;5.97;;;1.60;;
45812;SDS011;31519;45.408;10.962;2024-02-26T14:41:32;4.07;;;1.85;;
45812;SDS011;31519;45.408;10.962;2024-02-26T14:44:00;1.92;;;1.58;;
45812;SDS011;31519;45.408;10.962;2024-02-26T14:46:29;4.28;;;1.83;;
45812;SDS011;31519;45.408;10.962;2024-02-26T14:48:57;6.13;;;1.92;;
45812;SDS011;31519;45.408;10.962;2024-02-26T14:51:26;4.78;;;2.55;;
45812;SDS011;31519;45.408;10.962;2024-02-26T14:53:54;2.22;;;1.70;;
45812;SDS011;31519;45.408;10.962;2024-02-26T14:56:23;2.17;;;1.90;;